sensor_id;sensor_type;location;lat;lon;timestamp;pressure;altitude;pressure_sealevel;temperature;humidity
58967;BME280;44744;51.894;5.080;2023-08-17T00:00:31;102169.97;;;19.00;66.96
58967;BME280;44744;51.894;5.080;2023-08-17T00:01:32;102173.12;;;19.01;66.91
58967;BME280;44744;51.894;5.080;2023-08-17T00:02:32;102172.43;;;19.01;67.08
58967;BME280;44744;51.894;5.080;2023-08-17T00:03:32;102172.57;;;18.99;66.85
58967;BME280;44744;51.894;5.080;2023-08-17T00:04:32;102169.90;;;18.98;67.04
58967;BME280;44744;51.894;5.080;2023-08-17T00:05:33;102172.05;;;18.98;67.02
58967;BME280;44744;51.894;5.080;2023-08-17T00:06:33;102171.73;;;18.98;67.19
58967;BME280;44744;51.894;5.080;2023-08-17T00:07:33;102169.83;;;18.97;66.98
58967;BME280;44744;51.894;5.080;2023-08-17T00:08:34;102171.80;;;18.97;66.97
58967;BME280;44744;51.894;5.080;2023-08-17T00:09:34;102171.17;;;18.98;67.04
58967;BME280;44744;51.894;5.080;2023-08-17T00:10:34;102168.13;;;18.98;66.77
58967;BME280;44744;51.894;5.080;2023-08-17T00:11:35;102165.45;;;18.98;66.82
58967;BME280;44744;51.894;5.080;2023-08-17T00:12:35;102166.04;;;18.97;66.97
58967;BME280;44744;51.894;5.080;2023-08-17T00:13:35;102165.02;;;18.97;66.97
58967;BME280;44744;51.894;5.080;2023-08-17T00:14:36;102166.13;;;18.96;66.92
58967;BME280;44744;51.894;5.080;2023-08-17T00:15:36;102164.77;;;18.95;66.78
58967;BME280;44744;51.894;5.080;2023-08-17T00:16:36;102167.48;;;18.94;67.07
58967;BME280;44744;51.894;5.080;2023-08-17T00:17:37;102169.59;;;18.92;66.93
58967;BME280;44744;51.894;5.080;2023-08-17T00:18:37;102167.20;;;18.91;66.88
58967;BME280;44744;51.894;5.080;2023-08-17T00:19:37;102171.92;;;18.89;66.99
58967;BME280;44744;51.894;5.080;2023-08-17T00:20:40;102169.11;;;18.89;67.03
58967;BME280;44744;51.894;5.080;2023-08-17T00:21:48;102169.80;;;18.86;66.89
58967;BME280;44744;51.894;5.080;2023-08-17T00:22:48;102171.16;;;18.85;67.01
58967;BME280;44744;51.894;5.080;2023-08-17T00:23:49;102171.27;;;18.83;67.07
58967;BME280;44744;51.894;5.080;2023-08-17T00:24:49;102169.65;;;18.83;66.87
58967;BME280;44744;51.894;5.080;2023-08-17T00:25:50;102168.45;;;18.83;66.85
58967;BME280;44744;51.894;5.080;2023-08-17T00:26:50;102166.13;;;18.82;66.91
58967;BME280;44744;51.894;5.080;2023-08-17T00:27:50;102165.75;;;18.83;67.00
58967;BME280;44744;51.894;5.080;2023-08-17T00:28:51;102163.64;;;18.82;66.75
58967;BME280;44744;51.894;5.080;2023-08-17T00:29:51;102165.02;;;18.80;66.83
58967;BME280;44744;51.894;5.080;2023-08-17T00:30:51;102164.63;;;18.78;66.69
58967;BME280;44744;51.894;5.080;2023-08-17T00:31:52;102164.95;;;18.76;66.77
58967;BME280;44744;51.894;5.080;2023-08-17T00:32:52;102166.02;;;18.76;66.86
58967;BME280;44744;51.894;5.080;2023-08-17T00:33:53;102163.17;;;18.76;66.89
58967;BME280;44744;51.894;5.080;2023-08-17T00:34:53;102164.98;;;18.73;66.82
58967;BME280;44744;51.894;5.080;2023-08-17T00:35:53;102164.70;;;18.69;66.76
58967;BME280;44744;51.894;5.080;2023-08-17T00:36:54;102161.21;;;18.68;66.94
58967;BME280;44744;51.894;5.080;2023-08-17T00:37:54;102163.92;;;18.65;66.86
58967;BME280;44744;51.894;5.080;2023-08-17T00:38:54;102165.05;;;18.64;66.82
58967;BME280;44744;51.894;5.080;2023-08-17T00:39:54;102166.23;;;18.62;66.87
58967;BME280;44744;51.894;5.080;2023-08-17T00:40:55;102168.96;;;18.62;66.85
58967;BME280;44744;51.894;5.080;2023-08-17T00:41:55;102168.79;;;18.62;66.88
58967;BME280;44744;51.894;5.080;2023-08-17T00:42:55;102165.24;;;18.61;66.96
58967;BME280;44744;51.894;5.080;2023-08-17T00:43:56;102169.64;;;18.62;66.99
58967;BME280;44744;51.894;5.080;2023-08-17T00:44:56;102168.23;;;18.62;66.96
58967;BME280;44744;51.894;5.080;2023-08-17T00:45:57;102163.79;;;18.61;66.98
58967;BME280;44744;51.894;5.080;2023-08-17T00:46:57;102163.85;;;18.61;66.88
58967;BME280;44744;51.894;5.080;2023-08-17T00:47:58;102161.88;;;18.60;66.75
58967;BME280;44744;51.894;5.080;2023-08-17T00:48:59;102160.79;;;18.61;66.75
58967;BME280;44744;51.894;5.080;2023-08-17T00:49:59;102161.66;;;18.62;66.95
58967;BME280;44744;51.894;5.080;2023-08-17T00:50:59;102160.45;;;18.60;66.86
58967;BME280;44744;51.894;5.080;2023-08-17T00:52:01;102163.27;;;18.61;66.79
58967;BME280;44744;51.894;5.080;2023-08-17T00:53:02;102167.50;;;18.60;67.05
58967;BME280;44744;51.894;5.080;2023-08-17T00:54:03;102167.41;;;18.58;67.16
58967;BME280;44744;51.894;5.080;2023-08-17T00:55:05;102168.77;;;18.57;67.05
58967;BME280;44744;51.894;5.080;2023-08-17T00:56:05;102169.96;;;18.55;67.16
58967;BME280;44744;51.894;5.080;2023-08-17T00:57:06;102168.30;;;18.53;67.20
58967;BME280;44744;51.894;5.080;2023-08-17T00:58:06;102164.09;;;18.52;67.32
58967;BME280;44744;51.894;5.080;2023-08-17T00:59:06;102163.86;;;18.52;67.33
58967;BME280;44744;51.894;5.080;2023-08-17T01:00:08;102161.16;;;18.53;67.38
58967;BME280;44744;51.894;5.080;2023-08-17T01:01:09;102160.02;;;18.51;67.23
58967;BME280;44744;51.894;5.080;2023-08-17T01:02:10;102162.23;;;18.50;67.44
58967;BME280;44744;51.894;5.080;2023-08-17T01:03:10;102161.55;;;18.50;67.37
58967;BME280;44744;51.894;5.080;2023-08-17T01:04:10;102161.67;;;18.48;67.30
58967;BME280;44744;51.894;5.080;2023-08-17T01:05:11;102161.36;;;18.47;67.36
58967;BME280;44744;51.894;5.080;2023-08-17T01:06:11;102159.20;;;18.47;67.33
58967;BME280;44744;51.894;5.080;2023-08-17T01:07:29;102162.89;;;18.48;67.45
58967;BME280;44744;51.894;5.080;2023-08-17T01:08:30;102161.01;;;18.47;67.28
58967;BME280;44744;51.894;5.080;2023-08-17T01:09:30;102158.55;;;18.46;67.29
58967;BME280;44744;51.894;5.080;2023-08-17T01:10:37;102156.31;;;18.45;67.42
58967;BME280;44744;51.894;5.080;2023-08-17T01:13:05;102153.34;;;18.41;67.32
58967;BME280;44744;51.894;5.080;2023-08-17T01:14:19;102150.63;;;18.38;67.41
58967;BME280;44744;51.894;5.080;2023-08-17T01:15:36;102150.56;;;18.37;67.40
58967;BME280;44744;51.894;5.080;2023-08-17T01:17:02;102150.96;;;18.37;67.36
58967;BME280;44744;51.894;5.080;2023-08-17T01:18:17;102146.98;;;18.35;67.63
58967;BME280;44744;51.894;5.080;2023-08-17T01:19:25;102147.92;;;18.34;67.60
58967;BME280;44744;51.894;5.080;2023-08-17T01:20:27;102146.24;;;18.30;67.55
58967;BME280;44744;51.894;5.080;2023-08-17T01:21:41;102150.39;;;18.29;67.87
58967;BME280;44744;51.894;5.080;2023-08-17T01:22:46;102148.89;;;18.25;67.78
58967;BME280;44744;51.894;5.080;2023-08-17T01:23:49;102151.57;;;18.22;67.82
58967;BME280;44744;51.894;5.080;2023-08-17T01:24:50;102145.42;;;18.21;67.91
58967;BME280;44744;51.894;5.080;2023-08-17T01:25:50;102147.49;;;18.19;67.77
58967;BME280;44744;51.894;5.080;2023-08-17T01:26:50;102148.42;;;18.18;67.89
58967;BME280;44744;51.894;5.080;2023-08-17T01:27:50;102145.77;;;18.18;67.95
58967;BME280;44744;51.894;5.080;2023-08-17T01:28:51;102149.31;;;18.18;68.06
58967;BME280;44744;51.894;5.080;2023-08-17T01:29:51;102149.35;;;18.15;67.96
58967;BME280;44744;51.894;5.080;2023-08-17T01:31:04;102150.48;;;18.14;68.13
58967;BME280;44744;51.894;5.080;2023-08-17T01:34:08;102154.77;;;18.15;68.16
58967;BME280;44744;51.894;5.080;2023-08-17T01:35:01;102157.19;;;18.13;68.03
58967;BME280;44744;51.894;5.080;2023-08-17T01:36:13;102157.60;;;18.12;68.07
58967;BME280;44744;51.894;5.080;2023-08-17T01:37:21;102157.73;;;18.13;68.02
58967;BME280;44744;51.894;5.080;2023-08-17T01:38:24;102153.48;;;18.12;68.21
58967;BME280;44744;51.894;5.080;2023-08-17T01:39:35;102154.98;;;18.11;68.33
58967;BME280;44744;51.894;5.080;2023-08-17T01:40:37;102157.42;;;18.12;68.29
58967;BME280;44744;51.894;5.080;2023-08-17T01:43:29;102160.05;;;18.13;68.19
58967;BME280;44744;51.894;5.080;2023-08-17T01:44:30;102160.60;;;18.13;68.21
58967;BME280;44744;51.894;5.080;2023-08-17T01:45:30;102158.80;;;18.13;68.30
58967;BME280;44744;51.894;5.080;2023-08-17T01:46:32;102159.13;;;18.14;68.29
58967;BME280;44744;51.894;5.080;2023-08-17T01:47:33;102156.27;;;18.16;68.45
58967;BME280;44744;51.894;5.080;2023-08-17T01:48:33;102155.31;;;18.17;68.34
58967;BME280;44744;51.894;5.080;2023-08-17T01:49:33;102153.67;;;18.20;68.31
58967;BME280;44744;51.894;5.080;2023-08-17T01:50:34;102151.05;;;18.22;68.28
58967;BME280;44744;51.894;5.080;2023-08-17T01:51:34;102153.46;;;18.23;68.24
58967;BME280;44744;51.894;5.080;2023-08-17T01:52:34;102155.97;;;18.23;68.13
58967;BME280;44744;51.894;5.080;2023-08-17T01:53:35;102153.07;;;18.24;68.18
58967;BME280;44744;51.894;5.080;2023-08-17T01:54:35;102157.49;;;18.24;68.16
58967;BME280;44744;51.894;5.080;2023-08-17T01:55:35;102160.21;;;18.24;67.97
58967;BME280;44744;51.894;5.080;2023-08-17T01:56:35;102160.86;;;18.25;68.24
58967;BME280;44744;51.894;5.080;2023-08-17T01:57:36;102158.97;;;18.24;68.14
58967;BME280;44744;51.894;5.080;2023-08-17T01:58:36;102157.33;;;18.24;68.09
58967;BME280;44744;51.894;5.080;2023-08-17T01:59:36;102160.57;;;18.24;68.04
58967;BME280;44744;51.894;5.080;2023-08-17T02:00:37;102158.19;;;18.22;68.17
58967;BME280;44744;51.894;5.080;2023-08-17T02:01:37;102157.86;;;18.22;68.34
58967;BME280;44744;51.894;5.080;2023-08-17T02:02:37;102160.16;;;18.19;68.30
58967;BME280;44744;51.894;5.080;2023-08-17T02:03:37;102155.79;;;18.18;68.12
58967;BME280;44744;51.894;5.080;2023-08-17T02:04:38;102155.50;;;18.17;68.27
58967;BME280;44744;51.894;5.080;2023-08-17T02:05:38;102154.48;;;18.16;68.08
58967;BME280;44744;51.894;5.080;2023-08-17T02:06:38;102158.42;;;18.16;68.15
58967;BME280;44744;51.894;5.080;2023-08-17T02:07:39;102153.96;;;18.16;68.34
58967;BME280;44744;51.894;5.080;2023-08-17T02:08:39;102155.95;;;18.16;68.30
58967;BME280;44744;51.894;5.080;2023-08-17T02:09:39;102152.48;;;18.14;68.24
58967;BME280;44744;51.894;5.080;2023-08-17T02:10:40;102152.70;;;18.13;68.51
58967;BME280;44744;51.894;5.080;2023-08-17T02:11:40;102151.98;;;18.11;68.52
58967;BME280;44744;51.894;5.080;2023-08-17T02:12:40;102151.22;;;18.09;68.28
58967;BME280;44744;51.894;5.080;2023-08-17T02:13:41;102152.43;;;18.09;68.32
58967;BME280;44744;51.894;5.080;2023-08-17T02:14:41;102151.48;;;18.10;68.43
58967;BME280;44744;51.894;5.080;2023-08-17T02:15:41;102150.51;;;18.11;68.35
58967;BME280;44744;51.894;5.080;2023-08-17T02:16:42;102154.48;;;18.11;68.39
58967;BME280;44744;51.894;5.080;2023-08-17T02:17:42;102150.79;;;18.10;68.35
58967;BME280;44744;51.894;5.080;2023-08-17T02:18:42;102150.98;;;18.10;68.43
58967;BME280;44744;51.894;5.080;2023-08-17T02:19:43;102157.14;;;18.08;68.49
58967;BME280;44744;51.894;5.080;2023-08-17T02:20:43;102157.45;;;18.09;68.42
58967;BME280;44744;51.894;5.080;2023-08-17T02:21:43;102158.95;;;18.08;68.30
58967;BME280;44744;51.894;5.080;2023-08-17T02:22:44;102157.86;;;18.05;68.33
58967;BME280;44744;51.894;5.080;2023-08-17T02:23:47;102158.08;;;18.05;68.38
58967;BME280;44744;51.894;5.080;2023-08-17T02:24:47;102154.85;;;18.05;68.32
58967;BME280;44744;51.894;5.080;2023-08-17T02:25:47;102154.33;;;18.05;68.54
58967;BME280;44744;51.894;5.080;2023-08-17T02:26:48;102154.98;;;18.03;68.35
58967;BME280;44744;51.894;5.080;2023-08-17T02:27:48;102150.08;;;18.01;68.54
58967;BME280;44744;51.894;5.080;2023-08-17T02:28:48;102152.27;;;18.01;68.49
58967;BME280;44744;51.894;5.080;2023-08-17T02:29:49;102153.39;;;18.00;68.43
58967;BME280;44744;51.894;5.080;2023-08-17T02:30:55;102152.88;;;17.99;68.60
58967;BME280;44744;51.894;5.080;2023-08-17T02:31:55;102152.27;;;18.00;68.58
58967;BME280;44744;51.894;5.080;2023-08-17T02:32:55;102147.80;;;18.01;68.69
58967;BME280;44744;51.894;5.080;2023-08-17T02:33:55;102149.08;;;18.00;68.47
58967;BME280;44744;51.894;5.080;2023-08-17T02:34:56;102141.61;;;18.00;68.49
58967;BME280;44744;51.894;5.080;2023-08-17T02:35:56;102143.18;;;18.00;68.47
58967;BME280;44744;51.894;5.080;2023-08-17T02:36:56;102139.44;;;18.00;68.50
58967;BME280;44744;51.894;5.080;2023-08-17T02:37:56;102141.09;;;17.99;68.65
58967;BME280;44744;51.894;5.080;2023-08-17T02:38:57;102140.02;;;17.96;68.44
58967;BME280;44744;51.894;5.080;2023-08-17T02:39:58;102139.69;;;17.96;68.54
58967;BME280;44744;51.894;5.080;2023-08-17T02:40:58;102139.45;;;17.97;68.68
58967;BME280;44744;51.894;5.080;2023-08-17T02:42:01;102138.79;;;17.96;68.58
58967;BME280;44744;51.894;5.080;2023-08-17T02:43:01;102137.94;;;17.95;68.61
58967;BME280;44744;51.894;5.080;2023-08-17T02:44:02;102138.84;;;17.95;68.75
58967;BME280;44744;51.894;5.080;2023-08-17T02:45:02;102139.11;;;17.94;68.61
58967;BME280;44744;51.894;5.080;2023-08-17T02:46:03;102137.36;;;17.94;68.79
58967;BME280;44744;51.894;5.080;2023-08-17T02:47:03;102137.45;;;17.92;68.60
58967;BME280;44744;51.894;5.080;2023-08-17T02:48:04;102134.96;;;17.92;68.69
58967;BME280;44744;51.894;5.080;2023-08-17T02:49:04;102137.98;;;17.92;68.69
58967;BME280;44744;51.894;5.080;2023-08-17T02:50:05;102142.45;;;17.93;68.71
58967;BME280;44744;51.894;5.080;2023-08-17T02:51:06;102139.06;;;17.92;68.67
58967;BME280;44744;51.894;5.080;2023-08-17T02:52:06;102136.98;;;17.91;68.56
58967;BME280;44744;51.894;5.080;2023-08-17T02:53:06;102135.17;;;17.91;68.59
58967;BME280;44744;51.894;5.080;2023-08-17T02:54:07;102132.39;;;17.89;68.67
58967;BME280;44744;51.894;5.080;2023-08-17T02:55:07;102134.23;;;17.89;68.65
58967;BME280;44744;51.894;5.080;2023-08-17T02:56:07;102133.04;;;17.88;68.53
58967;BME280;44744;51.894;5.080;2023-08-17T02:57:08;102128.29;;;17.86;68.52
58967;BME280;44744;51.894;5.080;2023-08-17T02:58:08;102129.90;;;17.86;68.72
58967;BME280;44744;51.894;5.080;2023-08-17T02:59:08;102126.14;;;17.86;68.55
58967;BME280;44744;51.894;5.080;2023-08-17T03:00:09;102127.27;;;17.85;68.72
58967;BME280;44744;51.894;5.080;2023-08-17T03:01:09;102126.77;;;17.85;68.66
58967;BME280;44744;51.894;5.080;2023-08-17T03:02:10;102127.64;;;17.85;68.76
58967;BME280;44744;51.894;5.080;2023-08-17T03:03:10;102124.88;;;17.84;68.78
58967;BME280;44744;51.894;5.080;2023-08-17T03:04:11;102124.35;;;17.84;68.85
58967;BME280;44744;51.894;5.080;2023-08-17T03:05:11;102123.41;;;17.82;68.84
58967;BME280;44744;51.894;5.080;2023-08-17T03:06:11;102123.14;;;17.81;68.77
58967;BME280;44744;51.894;5.080;2023-08-17T03:07:11;102121.94;;;17.80;68.84
58967;BME280;44744;51.894;5.080;2023-08-17T03:08:12;102119.55;;;17.78;68.69
58967;BME280;44744;51.894;5.080;2023-08-17T03:09:12;102116.78;;;17.77;68.90
58967;BME280;44744;51.894;5.080;2023-08-17T03:10:12;102116.96;;;17.77;69.08
58967;BME280;44744;51.894;5.080;2023-08-17T03:11:12;102116.38;;;17.74;68.91
58967;BME280;44744;51.894;5.080;2023-08-17T03:12:13;102118.98;;;17.72;68.89
58967;BME280;44744;51.894;5.080;2023-08-17T03:13:13;102122.95;;;17.72;68.98
58967;BME280;44744;51.894;5.080;2023-08-17T03:14:13;102122.97;;;17.72;69.08
58967;BME280;44744;51.894;5.080;2023-08-17T03:15:14;102124.57;;;17.72;68.98
58967;BME280;44744;51.894;5.080;2023-08-17T03:16:14;102125.57;;;17.71;68.97
58967;BME280;44744;51.894;5.080;2023-08-17T03:17:15;102124.01;;;17.70;68.94
58967;BME280;44744;51.894;5.080;2023-08-17T03:18:15;102122.27;;;17.69;69.14
58967;BME280;44744;51.894;5.080;2023-08-17T03:19:16;102122.58;;;17.67;69.04
58967;BME280;44744;51.894;5.080;2023-08-17T03:20:16;102123.52;;;17.66;69.20
58967;BME280;44744;51.894;5.080;2023-08-17T03:21:16;102123.81;;;17.67;69.06
58967;BME280;44744;51.894;5.080;2023-08-17T03:22:17;102125.65;;;17.67;69.13
58967;BME280;44744;51.894;5.080;2023-08-17T03:23:17;102123.30;;;17.67;69.21
58967;BME280;44744;51.894;5.080;2023-08-17T03:24:17;102128.70;;;17.66;69.06
58967;BME280;44744;51.894;5.080;2023-08-17T03:25:20;102126.79;;;17.65;69.07
58967;BME280;44744;51.894;5.080;2023-08-17T03:26:21;102129.95;;;17.66;69.25
58967;BME280;44744;51.894;5.080;2023-08-17T03:27:21;102129.13;;;17.65;69.32
58967;BME280;44744;51.894;5.080;2023-08-17T03:28:21;102128.42;;;17.65;69.33
58967;BME280;44744;51.894;5.080;2023-08-17T03:29:21;102130.68;;;17.63;69.40
58967;BME280;44744;51.894;5.080;2023-08-17T03:30:22;102130.54;;;17.63;69.39
58967;BME280;44744;51.894;5.080;2023-08-17T03:31:22;102126.32;;;17.62;69.28
58967;BME280;44744;51.894;5.080;2023-08-17T03:32:22;102126.64;;;17.62;69.44
58967;BME280;44744;51.894;5.080;2023-08-17T03:33:23;102125.81;;;17.61;69.32
58967;BME280;44744;51.894;5.080;2023-08-17T03:34:23;102124.88;;;17.62;69.42
58967;BME280;44744;51.894;5.080;2023-08-17T03:35:23;102126.11;;;17.62;69.60
58967;BME280;44744;51.894;5.080;2023-08-17T03:36:23;102125.54;;;17.63;69.50
58967;BME280;44744;51.894;5.080;2023-08-17T03:37:24;102126.11;;;17.62;69.61
58967;BME280;44744;51.894;5.080;2023-08-17T03:38:24;102122.63;;;17.61;69.49
58967;BME280;44744;51.894;5.080;2023-08-17T03:39:24;102125.55;;;17.60;69.51
58967;BME280;44744;51.894;5.080;2023-08-17T03:40:24;102126.35;;;17.58;69.57
58967;BME280;44744;51.894;5.080;2023-08-17T03:41:25;102121.93;;;17.57;69.69
58967;BME280;44744;51.894;5.080;2023-08-17T03:42:25;102120.56;;;17.57;69.82
58967;BME280;44744;51.894;5.080;2023-08-17T03:43:25;102124.90;;;17.56;69.89
58967;BME280;44744;51.894;5.080;2023-08-17T03:44:26;102120.56;;;17.54;69.72
58967;BME280;44744;51.894;5.080;2023-08-17T03:45:26;102119.65;;;17.54;70.09
58967;BME280;44744;51.894;5.080;2023-08-17T03:46:26;102117.50;;;17.51;70.03
58967;BME280;44744;51.894;5.080;2023-08-17T03:47:26;102120.97;;;17.50;69.89
58967;BME280;44744;51.894;5.080;2023-08-17T03:48:27;102120.59;;;17.51;69.99
58967;BME280;44744;51.894;5.080;2023-08-17T03:49:27;102120.52;;;17.52;69.95
58967;BME280;44744;51.894;5.080;2023-08-17T03:50:28;102118.75;;;17.51;70.06
58967;BME280;44744;51.894;5.080;2023-08-17T03:51:28;102120.30;;;17.52;69.90
58967;BME280;44744;51.894;5.080;2023-08-17T03:52:28;102116.19;;;17.52;69.88
58967;BME280;44744;51.894;5.080;2023-08-17T03:53:29;102117.27;;;17.55;70.14
58967;BME280;44744;51.894;5.080;2023-08-17T03:54:29;102122.66;;;17.54;70.15
58967;BME280;44744;51.894;5.080;2023-08-17T03:55:29;102119.77;;;17.55;70.13
58967;BME280;44744;51.894;5.080;2023-08-17T03:56:30;102125.23;;;17.56;70.01
58967;BME280;44744;51.894;5.080;2023-08-17T03:57:30;102125.35;;;17.57;69.97
58967;BME280;44744;51.894;5.080;2023-08-17T03:58:31;102123.70;;;17.58;70.21
58967;BME280;44744;51.894;5.080;2023-08-17T03:59:31;102125.49;;;17.57;70.00
58967;BME280;44744;51.894;5.080;2023-08-17T04:00:31;102124.66;;;17.57;69.93
58967;BME280;44744;51.894;5.080;2023-08-17T04:01:31;102123.15;;;17.58;69.99
58967;BME280;44744;51.894;5.080;2023-08-17T04:02:32;102128.23;;;17.60;69.95
58967;BME280;44744;51.894;5.080;2023-08-17T04:03:32;102129.40;;;17.61;70.16
58967;BME280;44744;51.894;5.080;2023-08-17T04:04:32;102130.11;;;17.61;69.98
58967;BME280;44744;51.894;5.080;2023-08-17T04:05:33;102126.85;;;17.62;69.94
58967;BME280;44744;51.894;5.080;2023-08-17T04:06:34;102126.21;;;17.61;70.04
58967;BME280;44744;51.894;5.080;2023-08-17T04:07:34;102126.92;;;17.61;70.06
58967;BME280;44744;51.894;5.080;2023-08-17T04:08:36;102129.04;;;17.61;70.15
58967;BME280;44744;51.894;5.080;2023-08-17T04:09:36;102129.38;;;17.62;70.04
58967;BME280;44744;51.894;5.080;2023-08-17T04:10:36;102129.05;;;17.61;69.92
58967;BME280;44744;51.894;5.080;2023-08-17T04:11:37;102126.83;;;17.59;69.90
58967;BME280;44744;51.894;5.080;2023-08-17T04:12:37;102124.16;;;17.59;69.93
58967;BME280;44744;51.894;5.080;2023-08-17T04:13:37;102128.60;;;17.59;70.00
58967;BME280;44744;51.894;5.080;2023-08-17T04:14:39;102127.21;;;17.59;70.00
58967;BME280;44744;51.894;5.080;2023-08-17T04:15:39;102131.33;;;17.59;69.86
58967;BME280;44744;51.894;5.080;2023-08-17T04:16:43;102133.77;;;17.57;70.03
58967;BME280;44744;51.894;5.080;2023-08-17T04:17:43;102129.77;;;17.55;70.15
58967;BME280;44744;51.894;5.080;2023-08-17T04:18:43;102128.07;;;17.54;70.08
58967;BME280;44744;51.894;5.080;2023-08-17T04:19:44;102134.84;;;17.54;70.23
58967;BME280;44744;51.894;5.080;2023-08-17T04:20:44;102130.73;;;17.54;70.12
58967;BME280;44744;51.894;5.080;2023-08-17T04:21:44;102129.46;;;17.54;69.95
58967;BME280;44744;51.894;5.080;2023-08-17T04:22:45;102130.42;;;17.53;69.93
58967;BME280;44744;51.894;5.080;2023-08-17T04:23:45;102126.52;;;17.53;70.18
58967;BME280;44744;51.894;5.080;2023-08-17T04:24:45;102128.91;;;17.52;70.21
58967;BME280;44744;51.894;5.080;2023-08-17T04:25:46;102127.42;;;17.50;70.36
58967;BME280;44744;51.894;5.080;2023-08-17T04:26:47;102126.91;;;17.50;70.32
58967;BME280;44744;51.894;5.080;2023-08-17T04:29:37;102130.35;;;17.52;70.32
58967;BME280;44744;51.894;5.080;2023-08-17T04:30:38;102129.04;;;17.53;70.27
58967;BME280;44744;51.894;5.080;2023-08-17T04:31:38;102129.83;;;17.54;70.42
58967;BME280;44744;51.894;5.080;2023-08-17T04:32:39;102128.29;;;17.53;70.34
58967;BME280;44744;51.894;5.080;2023-08-17T04:33:40;102127.42;;;17.53;70.44
58967;BME280;44744;51.894;5.080;2023-08-17T04:34:42;102129.11;;;17.52;70.41
58967;BME280;44744;51.894;5.080;2023-08-17T04:35:42;102129.21;;;17.50;70.53
58967;BME280;44744;51.894;5.080;2023-08-17T04:36:46;102125.72;;;17.49;70.53
58967;BME280;44744;51.894;5.080;2023-08-17T04:37:46;102127.70;;;17.49;70.54
58967;BME280;44744;51.894;5.080;2023-08-17T04:38:46;102127.95;;;17.48;70.46
58967;BME280;44744;51.894;5.080;2023-08-17T04:39:47;102124.11;;;17.46;70.58
58967;BME280;44744;51.894;5.080;2023-08-17T04:40:47;102123.06;;;17.46;70.56
58967;BME280;44744;51.894;5.080;2023-08-17T04:41:48;102125.14;;;17.44;70.81
58967;BME280;44744;51.894;5.080;2023-08-17T04:42:49;102121.66;;;17.42;70.71
58967;BME280;44744;51.894;5.080;2023-08-17T04:43:49;102124.37;;;17.42;70.79
58967;BME280;44744;51.894;5.080;2023-08-17T04:44:49;102122.44;;;17.41;70.76
58967;BME280;44744;51.894;5.080;2023-08-17T04:45:50;102124.13;;;17.40;70.77
58967;BME280;44744;51.894;5.080;2023-08-17T04:46:50;102125.02;;;17.40;70.90
58967;BME280;44744;51.894;5.080;2023-08-17T04:47:50;102126.24;;;17.40;70.78
58967;BME280;44744;51.894;5.080;2023-08-17T04:48:51;102127.13;;;17.40;70.84
58967;BME280;44744;51.894;5.080;2023-08-17T04:49:51;102127.48;;;17.40;71.08
58967;BME280;44744;51.894;5.080;2023-08-17T04:50:51;102125.52;;;17.40;71.07
58967;BME280;44744;51.894;5.080;2023-08-17T04:51:52;102130.20;;;17.40;71.18
58967;BME280;44744;51.894;5.080;2023-08-17T04:52:52;102124.16;;;17.39;71.18
58967;BME280;44744;51.894;5.080;2023-08-17T04:53:53;102124.67;;;17.39;71.33
58967;BME280;44744;51.894;5.080;2023-08-17T04:54:53;102120.45;;;17.38;71.27
58967;BME280;44744;51.894;5.080;2023-08-17T04:55:56;102120.67;;;17.38;71.37
58967;BME280;44744;51.894;5.080;2023-08-17T04:56:56;102117.18;;;17.37;71.44
58967;BME280;44744;51.894;5.080;2023-08-17T04:57:56;102118.30;;;17.36;71.31
58967;BME280;44744;51.894;5.080;2023-08-17T04:58:57;102122.77;;;17.36;71.51
58967;BME280;44744;51.894;5.080;2023-08-17T04:59:57;102120.80;;;17.36;71.66
58967;BME280;44744;51.894;5.080;2023-08-17T05:01:01;102118.13;;;17.35;71.70
58967;BME280;44744;51.894;5.080;2023-08-17T05:02:01;102120.40;;;17.37;71.66
58967;BME280;44744;51.894;5.080;2023-08-17T05:03:02;102116.58;;;17.38;71.74
58967;BME280;44744;51.894;5.080;2023-08-17T05:04:03;102120.41;;;17.39;71.60
58967;BME280;44744;51.894;5.080;2023-08-17T05:05:09;102119.89;;;17.39;71.76
58967;BME280;44744;51.894;5.080;2023-08-17T05:06:09;102116.46;;;17.39;71.64
58967;BME280;44744;51.894;5.080;2023-08-17T05:07:09;102118.39;;;17.40;71.80
58967;BME280;44744;51.894;5.080;2023-08-17T05:08:10;102116.95;;;17.40;71.75
58967;BME280;44744;51.894;5.080;2023-08-17T05:09:10;102116.27;;;17.39;71.84
58967;BME280;44744;51.894;5.080;2023-08-17T05:10:10;102117.29;;;17.38;72.02
58967;BME280;44744;51.894;5.080;2023-08-17T05:11:10;102118.20;;;17.37;71.87
58967;BME280;44744;51.894;5.080;2023-08-17T05:12:11;102116.75;;;17.38;72.11
58967;BME280;44744;51.894;5.080;2023-08-17T05:13:11;102114.48;;;17.37;72.05
58967;BME280;44744;51.894;5.080;2023-08-17T05:14:11;102112.03;;;17.36;71.78
58967;BME280;44744;51.894;5.080;2023-08-17T05:15:11;102114.73;;;17.36;71.87
58967;BME280;44744;51.894;5.080;2023-08-17T05:16:12;102112.41;;;17.36;71.95
58967;BME280;44744;51.894;5.080;2023-08-17T05:17:12;102112.66;;;17.34;72.05
58967;BME280;44744;51.894;5.080;2023-08-17T05:18:12;102112.27;;;17.35;72.20
58967;BME280;44744;51.894;5.080;2023-08-17T05:19:13;102116.92;;;17.35;72.12
58967;BME280;44744;51.894;5.080;2023-08-17T05:20:13;102116.09;;;17.34;72.29
58967;BME280;44744;51.894;5.080;2023-08-17T05:21:13;102113.32;;;17.33;72.46
58967;BME280;44744;51.894;5.080;2023-08-17T05:22:14;102112.52;;;17.31;72.43
58967;BME280;44744;51.894;5.080;2023-08-17T05:23:14;102113.47;;;17.30;72.43
58967;BME280;44744;51.894;5.080;2023-08-17T05:24:14;102111.28;;;17.31;72.39
58967;BME280;44744;51.894;5.080;2023-08-17T05:25:15;102114.31;;;17.31;72.49
58967;BME280;44744;51.894;5.080;2023-08-17T05:26:15;102111.45;;;17.31;72.63